Terminal Aerodrome Forecast
Issued by NWS Lake Charles, LA

Home | Current Version | Previous Version | Text Only | Print | Product List | Glossary On
Versions: 1 2 3 4 5 6 7 8 9 10 11 12 13 14 15 16
000
FTUS44 KLCH 261100
TAFAEX
TAF
KAEX 261123Z 2612/2712 11007KT P6SM BKN040
     FM261900 13009KT P6SM VCSH BKN025
     FM270600 12008KT 4SM BR VCSH OVC007
      TEMPO 2709/2712 2SM -SHRA BR OVC004=

USA.gov is the U.S. government's official web portal to all federal, state and local government web resources and services.